Antrim, New Hampshire
Current Conditions -  °F | °C
As of 12:52 AM on Sunday 23 Nov 2014 (Local Time) from KAFN Reporting Station
Overcast Overcast  
Wind Chill: -1°   Ceiling: 2300
Heat Index:   Visibility: 10mi
Dew Point: -7°   Wind: 7mph
Humidity: 52%   Direction: 210°SSW
Pressure: 30.03"   Gusts: NA
Location:  43.03°N, 71.95°W
Report Text: KAFN 230552Z AUTO 21006KT 10SM OVC023 02/M07 A3003 RMK AO2 SLP183 T00221067 10028 20022 58001
Loading
Personal Weather Stations






























Interactive Weather Map New forecast layout! Learn more

10-Day Weather Forecast

Advertisements
Track Severe Weather on mobile